sensor_id;sensor_type;location;lat;lon;timestamp;temperature;humidity
58983;DHT22;44771;49.982;8.560;2022-08-01T00:00:41;20.40;99.90
58983;DHT22;44771;49.982;8.560;2022-08-01T00:05:43;20.70;99.90
58983;DHT22;44771;49.982;8.560;2022-08-01T00:10:44;20.90;99.90
58983;DHT22;44771;49.982;8.560;2022-08-01T00:15:49;20.90;99.90
58983;DHT22;44771;49.982;8.560;2022-08-01T00:20:55;20.80;99.90
58983;DHT22;44771;49.982;8.560;2022-08-01T00:25:59;20.70;99.90
58983;DHT22;44771;49.982;8.560;2022-08-01T00:31:05;20.50;99.90
58983;DHT22;44771;49.982;8.560;2022-08-01T00:36:07;20.40;99.90
58983;DHT22;44771;49.982;8.560;2022-08-01T00:41:09;20.20;99.90
58983;DHT22;44771;49.982;8.560;2022-08-01T00:46:12;20.20;99.90
58983;DHT22;44771;49.982;8.560;2022-08-01T00:51:14;20.00;99.90
58983;DHT22;44771;49.982;8.560;2022-08-01T00:56:16;19.90;99.90
58983;DHT22;44771;49.982;8.560;2022-08-01T01:01:25;19.80;99.90
58983;DHT22;44771;49.982;8.560;2022-08-01T01:06:59;19.90;99.90
58983;DHT22;44771;49.982;8.560;2022-08-01T01:12:13;19.70;99.90
58983;DHT22;44771;49.982;8.560;2022-08-01T01:17:21;19.60;99.90
58983;DHT22;44771;49.982;8.560;2022-08-01T01:23:02;19.50;99.90
58983;DHT22;44771;49.982;8.560;2022-08-01T01:28:12;19.30;99.90
58983;DHT22;44771;49.982;8.560;2022-08-01T01:33:19;19.20;99.90
58983;DHT22;44771;49.982;8.560;2022-08-01T01:38:25;19.10;99.90
58983;DHT22;44771;49.982;8.560;2022-08-01T01:43:32;19.00;99.90
58983;DHT22;44771;49.982;8.560;2022-08-01T01:48:39;18.60;99.90
58983;DHT22;44771;49.982;8.560;2022-08-01T01:53:45;18.30;99.90
58983;DHT22;44771;49.982;8.560;2022-08-01T01:58:55;18.10;99.90
58983;DHT22;44771;49.982;8.560;2022-08-01T02:04:01;17.90;99.90
58983;DHT22;44771;49.982;8.560;2022-08-01T02:09:04;17.60;99.90
58983;DHT22;44771;49.982;8.560;2022-08-01T02:14:09;17.30;99.90
58983;DHT22;44771;49.982;8.560;2022-08-01T02:19:17;17.30;99.90
58983;DHT22;44771;49.982;8.560;2022-08-01T02:24:32;17.20;99.90
58983;DHT22;44771;49.982;8.560;2022-08-01T02:29:43;17.20;99.90
58983;DHT22;44771;49.982;8.560;2022-08-01T02:35:01;17.20;99.90
58983;DHT22;44771;49.982;8.560;2022-08-01T02:40:06;17.00;99.90
58983;DHT22;44771;49.982;8.560;2022-08-01T02:45:17;16.70;99.90
58983;DHT22;44771;49.982;8.560;2022-08-01T02:50:26;16.50;99.90
58983;DHT22;44771;49.982;8.560;2022-08-01T02:55:33;16.60;99.90
58983;DHT22;44771;49.982;8.560;2022-08-01T03:00:41;16.60;99.90
58983;DHT22;44771;49.982;8.560;2022-08-01T03:05:53;16.50;99.90
58983;DHT22;44771;49.982;8.560;2022-08-01T03:10:59;16.30;99.90
58983;DHT22;44771;49.982;8.560;2022-08-01T03:16:04;16.40;99.90
58983;DHT22;44771;49.982;8.560;2022-08-01T03:21:09;16.40;99.90
58983;DHT22;44771;49.982;8.560;2022-08-01T03:26:11;16.40;99.90
58983;DHT22;44771;49.982;8.560;2022-08-01T03:31:14;16.30;99.90
58983;DHT22;44771;49.982;8.560;2022-08-01T03:36:19;16.20;99.90
58983;DHT22;44771;49.982;8.560;2022-08-01T03:41:24;16.10;99.90
58983;DHT22;44771;49.982;8.560;2022-08-01T03:46:35;16.10;99.90
58983;DHT22;44771;49.982;8.560;2022-08-01T03:51:39;16.10;99.90
58983;DHT22;44771;49.982;8.560;2022-08-01T03:56:43;16.20;99.90
58983;DHT22;44771;49.982;8.560;2022-08-01T04:01:45;16.20;99.90
58983;DHT22;44771;49.982;8.560;2022-08-01T04:06:48;16.00;99.90
58983;DHT22;44771;49.982;8.560;2022-08-01T04:11:53;15.80;99.90
58983;DHT22;44771;49.982;8.560;2022-08-01T04:16:58;15.80;99.90
58983;DHT22;44771;49.982;8.560;2022-08-01T04:22:05;15.70;99.90
58983;DHT22;44771;49.982;8.560;2022-08-01T04:27:13;15.60;99.90
58983;DHT22;44771;49.982;8.560;2022-08-01T04:32:16;15.60;99.90
58983;DHT22;44771;49.982;8.560;2022-08-01T04:37:29;15.60;99.90
58983;DHT22;44771;49.982;8.560;2022-08-01T04:42:39;15.60;99.90
58983;DHT22;44771;49.982;8.560;2022-08-01T04:47:41;15.70;99.90
58983;DHT22;44771;49.982;8.560;2022-08-01T05:19:10;17.30;99.90
58983;DHT22;44771;49.982;8.560;2022-08-01T05:24:21;17.60;99.90
58983;DHT22;44771;49.982;8.560;2022-08-01T05:29:31;17.90;99.90
58983;DHT22;44771;49.982;8.560;2022-08-01T05:34:35;18.10;99.90
58983;DHT22;44771;49.982;8.560;2022-08-01T05:39:37;18.20;99.90
58983;DHT22;44771;49.982;8.560;2022-08-01T05:44:39;18.40;99.90
58983;DHT22;44771;49.982;8.560;2022-08-01T05:55:21;18.70;99.90
58983;DHT22;44771;49.982;8.560;2022-08-01T06:00:26;18.80;99.90
58983;DHT22;44771;49.982;8.560;2022-08-01T06:05:28;19.00;99.90
58983;DHT22;44771;49.982;8.560;2022-08-01T06:10:32;19.30;99.90
58983;DHT22;44771;49.982;8.560;2022-08-01T06:15:34;19.40;99.90
58983;DHT22;44771;49.982;8.560;2022-08-01T06:20:36;19.60;99.90
58983;DHT22;44771;49.982;8.560;2022-08-01T06:25:39;19.80;99.90
58983;DHT22;44771;49.982;8.560;2022-08-01T06:30:41;19.90;99.90
58983;DHT22;44771;49.982;8.560;2022-08-01T06:35:53;20.10;99.90
58983;DHT22;44771;49.982;8.560;2022-08-01T06:41:11;20.30;99.90
58983;DHT22;44771;49.982;8.560;2022-08-01T06:46:15;20.50;99.90
58983;DHT22;44771;49.982;8.560;2022-08-01T06:51:17;20.70;99.90
58983;DHT22;44771;49.982;8.560;2022-08-01T06:56:20;20.80;99.90
58983;DHT22;44771;49.982;8.560;2022-08-01T07:01:25;21.00;99.90
58983;DHT22;44771;49.982;8.560;2022-08-01T07:06:35;21.00;99.90
58983;DHT22;44771;49.982;8.560;2022-08-01T07:11:41;21.20;99.90
58983;DHT22;44771;49.982;8.560;2022-08-01T07:16:43;21.40;99.90
58983;DHT22;44771;49.982;8.560;2022-08-01T07:21:45;21.60;99.90
58983;DHT22;44771;49.982;8.560;2022-08-01T07:26:52;21.70;99.90
58983;DHT22;44771;49.982;8.560;2022-08-01T07:31:57;21.80;99.90
58983;DHT22;44771;49.982;8.560;2022-08-01T07:36:59;21.70;99.90
58983;DHT22;44771;49.982;8.560;2022-08-01T07:42:07;21.70;99.90
58983;DHT22;44771;49.982;8.560;2022-08-01T07:47:09;21.70;99.90
58983;DHT22;44771;49.982;8.560;2022-08-01T07:52:13;21.80;99.90
58983;DHT22;44771;49.982;8.560;2022-08-01T07:57:26;22.00;99.90
58983;DHT22;44771;49.982;8.560;2022-08-01T08:02:44;22.30;99.90
58983;DHT22;44771;49.982;8.560;2022-08-01T08:07:50;22.40;99.90
58983;DHT22;44771;49.982;8.560;2022-08-01T08:12:54;22.50;99.90
58983;DHT22;44771;49.982;8.560;2022-08-01T08:18:10;22.90;99.90
58983;DHT22;44771;49.982;8.560;2022-08-01T08:23:13;23.30;99.90
58983;DHT22;44771;49.982;8.560;2022-08-01T08:28:36;23.70;99.90
58983;DHT22;44771;49.982;8.560;2022-08-01T08:33:38;23.80;99.90
58983;DHT22;44771;49.982;8.560;2022-08-01T08:38:40;23.70;99.90
58983;DHT22;44771;49.982;8.560;2022-08-01T08:43:43;23.60;99.80
58983;DHT22;44771;49.982;8.560;2022-08-01T08:48:49;23.30;99.90
58983;DHT22;44771;49.982;8.560;2022-08-01T08:53:57;23.10;99.90
58983;DHT22;44771;49.982;8.560;2022-08-01T08:59:02;23.10;99.90
58983;DHT22;44771;49.982;8.560;2022-08-01T09:04:05;23.30;99.90
58983;DHT22;44771;49.982;8.560;2022-08-01T09:09:07;23.60;99.90
58983;DHT22;44771;49.982;8.560;2022-08-01T09:14:13;24.30;99.90
58983;DHT22;44771;49.982;8.560;2022-08-01T09:19:18;24.80;98.90
58983;DHT22;44771;49.982;8.560;2022-08-01T09:24:57;24.70;97.20
58983;DHT22;44771;49.982;8.560;2022-08-01T09:30:12;24.10;98.10
58983;DHT22;44771;49.982;8.560;2022-08-01T09:35:26;23.50;99.20
58983;DHT22;44771;49.982;8.560;2022-08-01T09:40:47;23.10;99.90
58983;DHT22;44771;49.982;8.560;2022-08-01T09:45:51;23.00;99.90
58983;DHT22;44771;49.982;8.560;2022-08-01T09:50:56;23.20;99.90
58983;DHT22;44771;49.982;8.560;2022-08-01T09:56:12;24.00;99.90
58983;DHT22;44771;49.982;8.560;2022-08-01T10:01:22;24.80;97.50
58983;DHT22;44771;49.982;8.560;2022-08-01T10:06:40;24.50;97.60
58983;DHT22;44771;49.982;8.560;2022-08-01T10:11:56;24.20;98.00
58983;DHT22;44771;49.982;8.560;2022-08-01T10:17:09;24.20;97.90
58983;DHT22;44771;49.982;8.560;2022-08-01T10:22:23;24.20;97.90
58983;DHT22;44771;49.982;8.560;2022-08-01T10:27:32;24.40;97.50
58983;DHT22;44771;49.982;8.560;2022-08-01T10:32:52;24.30;97.10
58983;DHT22;44771;49.982;8.560;2022-08-01T10:38:02;25.20;97.00
58983;DHT22;44771;49.982;8.560;2022-08-01T10:43:06;26.40;94.00
58983;DHT22;44771;49.982;8.560;2022-08-01T10:48:19;27.00;90.30
58983;DHT22;44771;49.982;8.560;2022-08-01T10:53:52;27.00;90.60
58983;DHT22;44771;49.982;8.560;2022-08-01T10:59:03;27.30;85.20
58983;DHT22;44771;49.982;8.560;2022-08-01T11:04:20;27.70;84.80
58983;DHT22;44771;49.982;8.560;2022-08-01T11:09:30;28.20;79.60
58983;DHT22;44771;49.982;8.560;2022-08-01T11:15:17;28.60;75.70
58983;DHT22;44771;49.982;8.560;2022-08-01T11:20:34;28.60;73.90
58983;DHT22;44771;49.982;8.560;2022-08-01T11:26:07;28.80;73.20
58983;DHT22;44771;49.982;8.560;2022-08-01T11:37:29;29.20;67.10
58983;DHT22;44771;49.982;8.560;2022-08-01T11:42:36;29.10;66.50
58983;DHT22;44771;49.982;8.560;2022-08-01T12:14:05;29.80;62.10
58983;DHT22;44771;49.982;8.560;2022-08-01T12:19:18;30.40;59.40
58983;DHT22;44771;49.982;8.560;2022-08-01T13:17:50;27.90;61.60
58983;DHT22;44771;49.982;8.560;2022-08-01T13:22:52;27.70;62.80
58983;DHT22;44771;49.982;8.560;2022-08-01T13:28:15;27.50;64.00
58983;DHT22;44771;49.982;8.560;2022-08-01T13:33:18;27.50;63.20
58983;DHT22;44771;49.982;8.560;2022-08-01T13:38:20;27.50;63.70
58983;DHT22;44771;49.982;8.560;2022-08-01T13:43:22;27.90;63.80
58983;DHT22;44771;49.982;8.560;2022-08-01T13:48:26;28.10;62.70
58983;DHT22;44771;49.982;8.560;2022-08-01T13:53:28;28.20;62.70
58983;DHT22;44771;49.982;8.560;2022-08-01T13:58:30;28.10;61.70
58983;DHT22;44771;49.982;8.560;2022-08-01T14:03:45;28.20;61.60
58983;DHT22;44771;49.982;8.560;2022-08-01T14:09:14;27.90;62.30
58983;DHT22;44771;49.982;8.560;2022-08-01T14:14:54;27.70;60.70
58983;DHT22;44771;49.982;8.560;2022-08-01T14:20:18;27.80;60.80
58983;DHT22;44771;49.982;8.560;2022-08-01T14:25:46;27.90;61.10
58983;DHT22;44771;49.982;8.560;2022-08-01T14:31:06;27.80;60.80
58983;DHT22;44771;49.982;8.560;2022-08-01T14:36:42;27.60;62.30
58983;DHT22;44771;49.982;8.560;2022-08-01T14:42:26;27.60;62.60
58983;DHT22;44771;49.982;8.560;2022-08-01T14:47:48;27.50;63.50
58983;DHT22;44771;49.982;8.560;2022-08-01T14:52:56;27.40;64.80
58983;DHT22;44771;49.982;8.560;2022-08-01T14:58:02;27.10;64.40
58983;DHT22;44771;49.982;8.560;2022-08-01T15:03:39;26.90;65.00
58983;DHT22;44771;49.982;8.560;2022-08-01T15:09:16;26.70;65.30
58983;DHT22;44771;49.982;8.560;2022-08-01T15:14:21;26.50;66.40
58983;DHT22;44771;49.982;8.560;2022-08-01T15:19:26;26.50;67.90
58983;DHT22;44771;49.982;8.560;2022-08-01T15:24:41;26.50;66.30
58983;DHT22;44771;49.982;8.560;2022-08-01T15:29:56;26.40;66.90
58983;DHT22;44771;49.982;8.560;2022-08-01T15:35:01;26.30;68.50
58983;DHT22;44771;49.982;8.560;2022-08-01T15:40:05;26.10;69.10
58983;DHT22;44771;49.982;8.560;2022-08-01T15:45:08;25.70;72.30
58983;DHT22;44771;49.982;8.560;2022-08-01T15:50:26;25.30;74.60
58983;DHT22;44771;49.982;8.560;2022-08-01T16:00:45;24.40;79.20
58983;DHT22;44771;49.982;8.560;2022-08-01T16:05:47;24.10;82.60
58983;DHT22;44771;49.982;8.560;2022-08-01T16:10:52;24.00;83.50
58983;DHT22;44771;49.982;8.560;2022-08-01T16:15:55;23.90;84.50
58983;DHT22;44771;49.982;8.560;2022-08-01T16:20:57;23.90;86.10
58983;DHT22;44771;49.982;8.560;2022-08-01T16:31:42;24.20;87.90
58983;DHT22;44771;49.982;8.560;2022-08-01T16:37:09;24.70;86.00
58983;DHT22;44771;49.982;8.560;2022-08-01T16:42:15;25.10;85.40
58983;DHT22;44771;49.982;8.560;2022-08-01T16:47:19;25.20;83.30
58983;DHT22;44771;49.982;8.560;2022-08-01T16:52:30;25.10;85.80
58983;DHT22;44771;49.982;8.560;2022-08-01T16:58:04;25.00;86.40
58983;DHT22;44771;49.982;8.560;2022-08-01T17:03:14;24.70;90.60
58983;DHT22;44771;49.982;8.560;2022-08-01T17:08:37;24.40;90.80
58983;DHT22;44771;49.982;8.560;2022-08-01T17:14:09;24.20;91.20
58983;DHT22;44771;49.982;8.560;2022-08-01T17:19:26;24.10;92.40
58983;DHT22;44771;49.982;8.560;2022-08-01T17:24:34;24.00;91.10
58983;DHT22;44771;49.982;8.560;2022-08-01T17:35:12;24.10;91.20
58983;DHT22;44771;49.982;8.560;2022-08-01T17:40:23;24.10;91.00
58983;DHT22;44771;49.982;8.560;2022-08-01T17:45:41;24.20;90.80
58983;DHT22;44771;49.982;8.560;2022-08-01T17:51:07;24.30;91.50
58983;DHT22;44771;49.982;8.560;2022-08-01T17:56:08;24.30;91.50
58983;DHT22;44771;49.982;8.560;2022-08-01T18:01:14;24.30;90.00
58983;DHT22;44771;49.982;8.560;2022-08-01T18:06:33;24.30;89.60
58983;DHT22;44771;49.982;8.560;2022-08-01T18:12:06;24.20;87.70
58983;DHT22;44771;49.982;8.560;2022-08-01T18:17:10;24.20;88.20
58983;DHT22;44771;49.982;8.560;2022-08-01T18:22:19;24.10;85.80
58983;DHT22;44771;49.982;8.560;2022-08-01T18:27:34;24.00;86.60
58983;DHT22;44771;49.982;8.560;2022-08-01T18:33:01;24.00;86.10
58983;DHT22;44771;49.982;8.560;2022-08-01T18:38:21;23.90;87.10
58983;DHT22;44771;49.982;8.560;2022-08-01T18:43:25;23.80;87.20
58983;DHT22;44771;49.982;8.560;2022-08-01T18:48:27;23.70;86.80
58983;DHT22;44771;49.982;8.560;2022-08-01T18:53:31;23.60;86.70
58983;DHT22;44771;49.982;8.560;2022-08-01T18:58:38;23.50;86.90
58983;DHT22;44771;49.982;8.560;2022-08-01T19:03:55;23.30;88.20
58983;DHT22;44771;49.982;8.560;2022-08-01T19:09:01;23.10;89.40
58983;DHT22;44771;49.982;8.560;2022-08-01T19:14:11;22.90;90.60
58983;DHT22;44771;49.982;8.560;2022-08-01T19:19:13;22.70;90.80
58983;DHT22;44771;49.982;8.560;2022-08-01T19:24:29;22.60;91.50
58983;DHT22;44771;49.982;8.560;2022-08-01T19:29:33;22.60;92.30
58983;DHT22;44771;49.982;8.560;2022-08-01T19:34:44;22.60;91.80
58983;DHT22;44771;49.982;8.560;2022-08-01T19:39:50;22.60;92.00
58983;DHT22;44771;49.982;8.560;2022-08-01T19:44:52;22.70;91.90
58983;DHT22;44771;49.982;8.560;2022-08-01T19:49:54;22.60;92.10
58983;DHT22;44771;49.982;8.560;2022-08-01T19:55:10;22.50;92.30
58983;DHT22;44771;49.982;8.560;2022-08-01T20:00:13;22.40;93.60
58983;DHT22;44771;49.982;8.560;2022-08-01T20:05:29;22.30;93.20
58983;DHT22;44771;49.982;8.560;2022-08-01T20:10:33;22.20;93.50
58983;DHT22;44771;49.982;8.560;2022-08-01T20:15:36;22.10;93.30
58983;DHT22;44771;49.982;8.560;2022-08-01T20:20:38;22.00;93.40
58983;DHT22;44771;49.982;8.560;2022-08-01T20:25:51;21.90;94.10
58983;DHT22;44771;49.982;8.560;2022-08-01T20:31:01;21.90;94.20
58983;DHT22;44771;49.982;8.560;2022-08-01T20:36:07;21.70;94.80
58983;DHT22;44771;49.982;8.560;2022-08-01T20:41:27;21.70;95.20
58983;DHT22;44771;49.982;8.560;2022-08-01T20:46:38;21.70;94.60
58983;DHT22;44771;49.982;8.560;2022-08-01T20:51:40;21.70;94.40
58983;DHT22;44771;49.982;8.560;2022-08-01T20:56:54;21.70;94.20
58983;DHT22;44771;49.982;8.560;2022-08-01T21:02:05;21.70;94.30
58983;DHT22;44771;49.982;8.560;2022-08-01T21:07:13;21.70;94.50
58983;DHT22;44771;49.982;8.560;2022-08-01T21:12:27;21.60;94.80
58983;DHT22;44771;49.982;8.560;2022-08-01T21:17:40;21.50;94.40
58983;DHT22;44771;49.982;8.560;2022-08-01T21:22:51;21.40;95.10
58983;DHT22;44771;49.982;8.560;2022-08-01T21:27:59;21.20;96.40
58983;DHT22;44771;49.982;8.560;2022-08-01T21:33:03;21.00;97.10
58983;DHT22;44771;49.982;8.560;2022-08-01T21:38:06;20.80;99.10
58983;DHT22;44771;49.982;8.560;2022-08-01T21:43:16;21.00;99.90
58983;DHT22;44771;49.982;8.560;2022-08-01T21:48:21;21.10;99.90
58983;DHT22;44771;49.982;8.560;2022-08-01T21:53:35;21.20;99.90
58983;DHT22;44771;49.982;8.560;2022-08-01T21:58:56;21.00;99.90
58983;DHT22;44771;49.982;8.560;2022-08-01T22:04:05;20.90;99.90
58983;DHT22;44771;49.982;8.560;2022-08-01T22:09:12;20.80;99.90
58983;DHT22;44771;49.982;8.560;2022-08-01T22:14:24;20.70;99.90
58983;DHT22;44771;49.982;8.560;2022-08-01T22:19:27;20.60;99.90
58983;DHT22;44771;49.982;8.560;2022-08-01T22:24:46;20.50;99.90
58983;DHT22;44771;49.982;8.560;2022-08-01T22:29:54;20.40;99.90
58983;DHT22;44771;49.982;8.560;2022-08-01T22:34:57;20.40;99.90
58983;DHT22;44771;49.982;8.560;2022-08-01T22:40:00;20.20;99.90
58983;DHT22;44771;49.982;8.560;2022-08-01T22:45:10;20.00;99.90
58983;DHT22;44771;49.982;8.560;2022-08-01T22:50:15;19.90;99.90
58983;DHT22;44771;49.982;8.560;2022-08-01T22:55:37;19.70;99.90
58983;DHT22;44771;49.982;8.560;2022-08-01T23:01:02;19.40;99.90
58983;DHT22;44771;49.982;8.560;2022-08-01T23:06:08;19.30;99.90
58983;DHT22;44771;49.982;8.560;2022-08-01T23:11:11;19.20;99.90
58983;DHT22;44771;49.982;8.560;2022-08-01T23:16:15;19.00;99.90
58983;DHT22;44771;49.982;8.560;2022-08-01T23:21:21;18.90;99.90
58983;DHT22;44771;49.982;8.560;2022-08-01T23:26:25;18.80;99.90
58983;DHT22;44771;49.982;8.560;2022-08-01T23:31:30;18.60;99.90
58983;DHT22;44771;49.982;8.560;2022-08-01T23:36:52;18.50;99.90
58983;DHT22;44771;49.982;8.560;2022-08-01T23:41:57;18.40;99.90
58983;DHT22;44771;49.982;8.560;2022-08-01T23:47:08;18.10;99.90
58983;DHT22;44771;49.982;8.560;2022-08-01T23:52:15;18.00;99.90
58983;DHT22;44771;49.982;8.560;2022-08-01T23:57:22;17.90;99.90
